createdAt,value
2023-03-27T00:00:13.468Z,92600.84
2023-03-27T00:02:41.842Z,92595.63
2023-03-27T00:05:10.417Z,92585.19
2023-03-27T00:07:41.433Z,92591.84
2023-03-27T00:10:10.336Z,92580.69
2023-03-27T00:12:39.343Z,92575.50
2023-03-27T00:15:08.312Z,92573.03
2023-03-27T00:17:37.655Z,92573.41
2023-03-27T00:20:08.642Z,92574.59
2023-03-27T00:22:36.541Z,92563.28
2023-03-27T00:25:05.380Z,92560.31
2023-03-27T00:27:33.382Z,92567.47
2023-03-27T00:30:01.207Z,92566.72
2023-03-27T00:32:29.082Z,92556.81
2023-03-27T00:34:57.008Z,92558.38
2023-03-27T00:37:24.891Z,92555.97
2023-03-27T00:39:52.679Z,92556.94
2023-03-27T00:42:23.261Z,92558.16
2023-03-27T00:44:52.242Z,92561.53
2023-03-27T00:47:33.965Z,92559.72
2023-03-27T00:50:06.920Z,92561.31
2023-03-27T00:52:37.361Z,92555.50
2023-03-27T00:55:10.341Z,92550.56
2023-03-27T00:57:38.442Z,92559.22
2023-03-27T01:00:13.073Z,92550.41
2023-03-27T01:02:44.553Z,92546.88
2023-03-27T01:05:13.731Z,92531.19
2023-03-27T01:08:00.247Z,92522.94
2023-03-27T01:10:42.877Z,92528.63
2023-03-27T01:13:54.191Z,92523.03
2023-03-27T01:16:49.584Z,92517.28
2023-03-27T01:19:29.446Z,92510.94
2023-03-27T01:22:33.434Z,92510.41
2023-03-27T01:25:04.534Z,92502.25
2023-03-27T01:28:17.570Z,92463.97
2023-03-27T01:31:21.671Z,92497.28
2023-03-27T01:33:49.830Z,92489.91
2023-03-27T01:36:39.983Z,92490.53
2023-03-27T01:39:28.476Z,92478.25
2023-03-27T01:42:23.069Z,92478.28
2023-03-27T01:44:58.465Z,92479.81
2023-03-27T01:47:32.719Z,92473.56
2023-03-27T01:50:33.687Z,92481.25
2023-03-27T01:53:57.322Z,92460.66
2023-03-27T01:56:37.693Z,92493.91
2023-03-27T01:59:18.834Z,92488.22
2023-03-27T02:01:56.361Z,92470.03
2023-03-27T02:04:29.246Z,92461.78
2023-03-27T02:07:05.127Z,92449.03
2023-03-27T02:09:39.037Z,92436.59
2023-03-27T02:12:12.234Z,92444.03
2023-03-27T02:14:46.678Z,92443.16
2023-03-27T02:17:18.722Z,92442.13
2023-03-27T02:19:53.172Z,92443.97
2023-03-27T02:22:37.579Z,92450.97
2023-03-27T02:25:36.239Z,92437.41
2023-03-27T02:28:38.298Z,92434.16
2023-03-27T02:31:32.522Z,92433.16
2023-03-27T02:34:15.577Z,92430.91
2023-03-27T02:37:05.493Z,92440.03
2023-03-27T02:40:14.451Z,92427.81
2023-03-27T02:42:58.727Z,92399.56
2023-03-27T02:45:57.140Z,92393.38
2023-03-27T02:48:49.252Z,92386.31
2023-03-27T02:51:31.075Z,92376.41
2023-03-27T02:56:44.995Z,92377.63
2023-03-27T02:59:25.776Z,92371.00
2023-03-27T03:01:55.433Z,92372.72
2023-03-27T03:04:33.389Z,92367.28
2023-03-27T03:07:06.619Z,92370.97
2023-03-27T03:09:40.315Z,92360.44
2023-03-27T03:12:10.441Z,92367.34
2023-03-27T03:14:46.881Z,92366.78
2023-03-27T03:17:16.646Z,92363.47
2023-03-27T03:19:46.157Z,92359.13
2023-03-27T03:22:14.998Z,92353.53
2023-03-27T03:24:43.948Z,92353.22
2023-03-27T03:27:15.953Z,92350.66
2023-03-27T03:29:50.634Z,92340.47
2023-03-27T03:32:26.840Z,92339.44
2023-03-27T03:34:57.148Z,92340.38
2023-03-27T03:37:28.851Z,92332.78
2023-03-27T03:39:58.818Z,92325.41
2023-03-27T03:42:26.931Z,92328.59
2023-03-27T03:44:54.905Z,92332.22
2023-03-27T03:47:24.396Z,92337.56
2023-03-27T03:49:52.380Z,92333.25
2023-03-27T03:52:21.246Z,92317.16
2023-03-27T03:54:49.306Z,92325.84
2023-03-27T03:57:17.754Z,92323.66
2023-03-27T03:59:55.274Z,92322.25
2023-03-27T04:02:45.799Z,92338.41
2023-03-27T04:05:17.392Z,92318.00
2023-03-27T04:07:45.982Z,92307.03
2023-03-27T04:10:27.440Z,92303.56
2023-03-27T04:12:56.342Z,92303.91
2023-03-27T04:15:28.768Z,92304.91
2023-03-27T04:18:16.622Z,92301.19
2023-03-27T04:20:50.242Z,92303.84
2023-03-27T04:23:20.368Z,92303.94
2023-03-27T04:25:49.112Z,92313.94
2023-03-27T04:28:22.881Z,92305.84
2023-03-27T04:31:06.629Z,92302.50
2023-03-27T04:33:53.552Z,92320.38
2023-03-27T04:36:42.809Z,92312.06
2023-03-27T04:39:13.225Z,92310.09
2023-03-27T04:41:41.141Z,92323.31
2023-03-27T04:44:09.307Z,92325.19
2023-03-27T04:46:41.746Z,92309.56
2023-03-27T04:49:12.627Z,92316.41
2023-03-27T04:51:51.458Z,92308.38
2023-03-27T04:54:23.098Z,92323.38
2023-03-27T04:56:53.590Z,92311.38
2023-03-27T04:59:22.570Z,92307.28
2023-03-27T05:02:13.275Z,92306.13
2023-03-27T05:05:02.395Z,92294.13
2023-03-27T05:07:37.003Z,92293.66
2023-03-27T05:10:07.672Z,92291.31
2023-03-27T05:12:36.493Z,92301.88
2023-03-27T05:15:06.463Z,92282.66
2023-03-27T05:17:42.302Z,92261.75
2023-03-27T05:20:15.118Z,92278.00
2023-03-27T05:22:44.521Z,92270.31
2023-03-27T05:25:39.657Z,92261.09
2023-03-27T05:28:12.776Z,92261.94
2023-03-27T05:30:42.590Z,92256.34
2023-03-27T05:33:17.910Z,92257.03
2023-03-27T05:35:48.477Z,92249.78
2023-03-27T05:38:17.580Z,92215.47
2023-03-27T05:41:10.509Z,92220.56
2023-03-27T05:43:45.475Z,92205.28
2023-03-27T05:46:21.057Z,92203.19
2023-03-27T05:49:02.737Z,92203.50
2023-03-27T05:51:31.791Z,92193.19
2023-03-27T05:54:00.090Z,92168.56
2023-03-27T05:56:48.431Z,92167.75
2023-03-27T05:59:17.470Z,92146.81
2023-03-27T06:01:49.254Z,92153.19
2023-03-27T06:04:24.349Z,92148.94
2023-03-27T06:07:02.806Z,92126.09
2023-03-27T06:09:32.777Z,92109.06
2023-03-27T06:12:33.130Z,92093.94
2023-03-27T06:15:11.159Z,92097.06
2023-03-27T06:17:47.818Z,92073.66
2023-03-27T06:20:16.296Z,92053.97
2023-03-27T06:22:53.757Z,92053.59
2023-03-27T06:25:34.952Z,92042.28
2023-03-27T06:28:07.402Z,92015.59
2023-03-27T06:30:42.592Z,92016.47
2023-03-27T06:33:47.401Z,92015.59
2023-03-27T06:36:29.453Z,92002.91
2023-03-27T06:39:00.775Z,91999.56
2023-03-27T06:41:31.913Z,91989.00
2023-03-27T06:44:22.858Z,91992.94
2023-03-27T06:47:14.413Z,92002.09
2023-03-27T06:50:11.519Z,92029.00
2023-03-27T06:52:39.481Z,92054.84
2023-03-27T06:55:32.321Z,92033.66
2023-03-27T06:58:02.202Z,92053.06
2023-03-27T07:00:37.696Z,92050.94
2023-03-27T07:03:20.443Z,92052.31
2023-03-27T07:05:54.521Z,92050.03
2023-03-27T07:08:25.240Z,92066.41
2023-03-27T07:11:11.207Z,92045.91
2023-03-27T07:13:46.695Z,92042.84
2023-03-27T07:16:22.749Z,92023.16
2023-03-27T07:18:51.115Z,92029.06
2023-03-27T07:21:19.196Z,92019.09
2023-03-27T07:23:47.527Z,92014.19
2023-03-27T07:26:21.250Z,92007.16
2023-03-27T07:28:55.421Z,92006.75
2023-03-27T07:33:55.049Z,92014.25
2023-03-27T07:36:31.838Z,92025.09
2023-03-27T07:39:06.781Z,92029.56
2023-03-27T07:41:36.115Z,92032.72
2023-03-27T07:44:24.823Z,92029.41
2023-03-27T07:46:58.751Z,92026.25
2023-03-27T07:49:39.235Z,92019.59
2023-03-27T07:52:14.724Z,92005.88
2023-03-27T07:54:53.488Z,92015.19
2023-03-27T07:57:24.648Z,92004.88
2023-03-27T07:59:53.006Z,91988.75
2023-03-27T08:02:32.071Z,91997.34
2023-03-27T08:05:05.638Z,91994.03
2023-03-27T08:07:40.987Z,91993.66
2023-03-27T08:10:10.373Z,91975.53
2023-03-27T08:12:52.923Z,91987.66
2023-03-27T08:15:21.229Z,91986.16
2023-03-27T08:17:54.128Z,91984.63
2023-03-27T08:20:25.609Z,91985.38
2023-03-27T08:22:54.422Z,91995.41
2023-03-27T08:25:35.026Z,91973.94
2023-03-27T08:28:07.533Z,91972.19
2023-03-27T08:30:36.416Z,91969.59
2023-03-27T08:33:05.331Z,91954.03
2023-03-27T08:35:33.569Z,91962.69
2023-03-27T08:38:03.890Z,91961.34
2023-03-27T08:40:59.894Z,91960.63
2023-03-27T08:43:45.221Z,91968.56
2023-03-27T08:46:20.682Z,91964.63
2023-03-27T08:49:11.127Z,91956.41
2023-03-27T08:51:54.386Z,91960.84
2023-03-27T08:54:26.263Z,91962.81
2023-03-27T08:56:56.375Z,91962.34
2023-03-27T08:59:28.557Z,91970.94
2023-03-27T09:02:09.054Z,91960.38
2023-03-27T09:04:57.188Z,91955.53
2023-03-27T09:07:32.909Z,91963.03
2023-03-27T09:10:45.353Z,91976.09
2023-03-27T09:13:58.287Z,91963.81
2023-03-27T09:16:35.674Z,91962.31
2023-03-27T09:19:25.037Z,91967.97
2023-03-27T09:22:18.996Z,91972.84
2023-03-27T09:25:24.436Z,91938.78
2023-03-27T09:28:21.390Z,91938.03
2023-03-27T09:31:23.624Z,91934.44
2023-03-27T09:33:52.755Z,91920.88
2023-03-27T09:36:22.137Z,91932.00
2023-03-27T09:38:58.858Z,91932.53
2023-03-27T09:41:34.732Z,91935.94
2023-03-27T09:44:42.817Z,91900.00
2023-03-27T09:47:17.207Z,91930.69
2023-03-27T09:49:56.630Z,91927.47
2023-03-27T09:52:41.969Z,91923.81
2023-03-27T09:55:50.857Z,91911.72
2023-03-27T09:58:28.119Z,91913.53
2023-03-27T10:01:26.708Z,91886.59
2023-03-27T10:04:00.153Z,91906.47
2023-03-27T10:06:39.244Z,91900.56
2023-03-27T10:09:27.183Z,91897.16
2023-03-27T10:12:10.278Z,91912.66
2023-03-27T10:14:45.188Z,91905.50
2023-03-27T10:17:26.921Z,91910.28
2023-03-27T10:20:11.489Z,91909.94
2023-03-27T10:22:43.137Z,91910.16
2023-03-27T10:25:19.452Z,91901.03
2023-03-27T10:28:11.103Z,91903.97
2023-03-27T10:31:26.906Z,91899.34
2023-03-27T10:34:38.343Z,91883.78
2023-03-27T10:37:41.379Z,91890.94
2023-03-27T10:40:37.993Z,91898.56
2023-03-27T10:43:37.292Z,91881.78
2023-03-27T10:46:11.470Z,91856.66
2023-03-27T10:49:04.353Z,91851.28
2023-03-27T10:51:46.605Z,91849.16
2023-03-27T10:54:33.700Z,91834.41
2023-03-27T10:57:12.886Z,91823.56
2023-03-27T11:00:00.848Z,91832.88
2023-03-27T11:02:45.766Z,91816.22
2023-03-27T11:05:28.111Z,91816.34
2023-03-27T11:08:19.526Z,91818.56
2023-03-27T11:10:49.703Z,91814.16
2023-03-27T11:13:33.675Z,91815.41
2023-03-27T11:16:48.920Z,91834.97
2023-03-27T11:19:43.263Z,91847.41
2023-03-27T11:22:42.460Z,91865.66
2023-03-27T11:25:34.410Z,91866.78
2023-03-27T11:28:18.916Z,91888.97
2023-03-27T11:30:53.282Z,91944.06
2023-03-27T11:33:32.840Z,91916.09
2023-03-27T11:36:06.636Z,91922.03
2023-03-27T11:39:06.716Z,91925.78
2023-03-27T11:41:36.180Z,91951.22
2023-03-27T11:44:04.408Z,91932.66
2023-03-27T11:47:32.813Z,91927.06
2023-03-27T11:50:08.339Z,91898.28
2023-03-27T11:52:56.708Z,91903.72
2023-03-27T11:56:01.022Z,91885.28
2023-03-27T11:58:39.614Z,91897.56
2023-03-27T12:01:21.899Z,91892.34
2023-03-27T12:04:11.507Z,91913.41
2023-03-27T12:07:36.071Z,91901.81
2023-03-27T12:10:17.010Z,91915.34
2023-03-27T12:13:41.360Z,91927.50
2023-03-27T12:16:33.766Z,91954.63
2023-03-27T12:19:39.014Z,91972.59
2023-03-27T12:22:28.293Z,91986.84
2023-03-27T12:25:27.543Z,91993.28
2023-03-27T12:28:35.312Z,91986.13
2023-03-27T12:31:42.123Z,91982.94
2023-03-27T12:34:50.542Z,92000.28
2023-03-27T12:37:31.231Z,91995.72
2023-03-27T12:40:01.943Z,92006.31
2023-03-27T12:42:55.045Z,91983.19
2023-03-27T12:45:28.251Z,92035.97
2023-03-27T12:48:12.618Z,92034.16
2023-03-27T12:50:44.319Z,92049.41
2023-03-27T12:53:31.148Z,92050.19
2023-03-27T12:56:17.356Z,92041.25
2023-03-27T12:58:52.649Z,92026.09
2023-03-27T13:01:52.053Z,92019.81
2023-03-27T13:04:51.336Z,92018.34
2023-03-27T13:07:43.796Z,92017.91
2023-03-27T13:10:30.332Z,91989.63
2023-03-27T13:13:35.824Z,91955.16
2023-03-27T13:16:42.141Z,91932.47
2023-03-27T13:19:23.374Z,91945.47
2023-03-27T13:22:39.779Z,91945.16
2023-03-27T13:25:31.775Z,91966.97
2023-03-27T13:28:38.503Z,91966.97
2023-03-27T13:31:44.811Z,91924.56
2023-03-27T13:34:35.154Z,91932.16
2023-03-27T13:37:09.936Z,91913.06
2023-03-27T13:40:20.674Z,91891.31
2023-03-27T13:43:21.856Z,91917.75
2023-03-27T13:45:59.178Z,91939.47
2023-03-27T13:49:04.996Z,91930.06
2023-03-27T13:52:11.351Z,91919.41
2023-03-27T13:54:46.645Z,91939.22
2023-03-27T13:57:46.926Z,91946.38
2023-03-27T14:00:54.900Z,91932.28
2023-03-27T14:03:49.023Z,91930.59
2023-03-27T14:06:28.752Z,91919.03
2023-03-27T14:09:27.440Z,91881.53
2023-03-27T14:12:43.599Z,91874.22
2023-03-27T14:15:53.909Z,91861.34
2023-03-27T14:18:58.669Z,91841.69
2023-03-27T14:21:38.359Z,91868.19
2023-03-27T14:24:40.841Z,91898.19
2023-03-27T14:27:21.752Z,91894.72
2023-03-27T14:30:07.897Z,91896.00
2023-03-27T14:32:38.869Z,91893.47
2023-03-27T14:35:29.445Z,91896.19
2023-03-27T14:38:25.157Z,91877.22
2023-03-27T14:41:02.544Z,91894.53
2023-03-27T14:43:53.543Z,91861.81
2023-03-27T14:46:24.654Z,91885.50
2023-03-27T14:48:58.557Z,91879.59
2023-03-27T14:51:37.582Z,91876.06
2023-03-27T14:54:19.906Z,91871.66
2023-03-27T14:56:52.274Z,91859.78
2023-03-27T14:59:44.402Z,91850.50
2023-03-27T15:02:19.467Z,91857.03
2023-03-27T15:04:48.737Z,91865.31
2023-03-27T15:07:28.981Z,91880.34
2023-03-27T15:10:31.982Z,91872.56
2023-03-27T15:13:36.914Z,91857.84
2023-03-27T15:16:14.736Z,91856.06
2023-03-27T15:18:45.611Z,91843.59
2023-03-27T15:21:21.011Z,91853.56
2023-03-27T15:24:20.460Z,91840.63
2023-03-27T15:26:51.252Z,91832.25
2023-03-27T15:29:43.019Z,91838.16
2023-03-27T15:32:15.225Z,91838.44
2023-03-27T15:34:47.997Z,91838.53
2023-03-27T15:37:23.628Z,91835.59
2023-03-27T15:40:16.213Z,91834.59
2023-03-27T15:42:54.644Z,91834.38
2023-03-27T15:45:35.127Z,91838.50
2023-03-27T15:48:07.071Z,91839.25
2023-03-27T15:50:35.549Z,91819.91
2023-03-27T15:53:04.021Z,91836.88
2023-03-27T15:55:37.880Z,91851.00
2023-03-27T15:58:21.496Z,91856.34
2023-03-27T16:00:52.939Z,91863.81
2023-03-27T16:03:26.553Z,91863.31
2023-03-27T16:05:57.753Z,91867.41
2023-03-27T16:08:32.136Z,91858.63
2023-03-27T16:11:01.426Z,91858.91
2023-03-27T16:13:37.533Z,91866.00
2023-03-27T16:16:23.341Z,91878.09
2023-03-27T16:18:52.226Z,91873.72
2023-03-27T16:21:26.979Z,91871.44
2023-03-27T16:23:55.996Z,91867.22
2023-03-27T16:26:28.020Z,91875.25
2023-03-27T16:29:00.203Z,91861.91
2023-03-27T16:31:29.072Z,91867.78
2023-03-27T16:33:58.637Z,91872.81
2023-03-27T16:36:33.360Z,91865.09
2023-03-27T16:39:02.068Z,91861.28
2023-03-27T16:41:30.522Z,91860.56
2023-03-27T16:43:59.011Z,91866.25
2023-03-27T16:46:29.426Z,91870.44
2023-03-27T16:48:58.355Z,91877.16
2023-03-27T16:51:29.223Z,91870.38
2023-03-27T16:53:57.752Z,91878.16
2023-03-27T16:56:26.582Z,91892.78
2023-03-27T16:58:55.130Z,91893.06
2023-03-27T17:01:26.385Z,91907.59
2023-03-27T17:03:54.852Z,91908.84
2023-03-27T17:06:23.379Z,91918.19
2023-03-27T17:08:55.861Z,91921.66
2023-03-27T17:11:24.554Z,91931.44
2023-03-27T17:13:53.097Z,91934.19
2023-03-27T17:16:21.986Z,91947.50
2023-03-27T17:18:52.265Z,91932.72
2023-03-27T17:21:20.622Z,91951.25
2023-03-27T17:23:49.819Z,91948.59
2023-03-27T17:26:30.022Z,91949.19
2023-03-27T17:28:58.584Z,91947.38
2023-03-27T17:31:30.241Z,91947.38
2023-03-27T17:34:00.556Z,91941.03
2023-03-27T17:36:41.207Z,91942.38
2023-03-27T17:39:12.051Z,91939.78
2023-03-27T17:41:40.465Z,91948.59
2023-03-27T17:44:15.024Z,91952.84
2023-03-27T17:46:43.755Z,91962.41
2023-03-27T17:49:12.388Z,91966.97
2023-03-27T17:51:41.367Z,91970.22
2023-03-27T17:54:09.706Z,91968.06
2023-03-27T17:56:38.124Z,91976.59
2023-03-27T17:59:06.469Z,91970.22
2023-03-27T18:01:34.916Z,91972.59
2023-03-27T18:04:03.957Z,91964.34
2023-03-27T18:06:32.536Z,91959.59
2023-03-27T18:09:01.182Z,91964.63
2023-03-27T18:11:29.926Z,91959.59
2023-03-27T18:13:58.330Z,91951.13
2023-03-27T18:16:27.309Z,91958.25
2023-03-27T18:18:58.522Z,91960.16
2023-03-27T18:21:27.631Z,91975.56
2023-03-27T18:23:59.912Z,91968.94
2023-03-27T18:26:28.529Z,91976.66
2023-03-27T18:28:57.989Z,91971.34
2023-03-27T18:31:26.914Z,91971.88
2023-03-27T18:33:55.589Z,91971.34
2023-03-27T18:36:24.203Z,91983.25
2023-03-27T18:38:52.586Z,91979.53
2023-03-27T18:41:21.172Z,91987.22
2023-03-27T18:43:49.729Z,91990.44
2023-03-27T18:46:20.755Z,92000.22
2023-03-27T18:48:50.280Z,92042.88
2023-03-27T18:51:19.229Z,92024.91
2023-03-27T18:53:49.713Z,92049.53
2023-03-27T18:56:19.040Z,92049.25
2023-03-27T18:58:47.595Z,92045.81
2023-03-27T19:01:16.468Z,92056.13
2023-03-27T19:03:45.071Z,92059.56
2023-03-27T19:06:13.858Z,92077.03
2023-03-27T19:08:45.728Z,92068.28
2023-03-27T19:11:14.188Z,92078.88
2023-03-27T19:14:12.515Z,92087.63
2023-03-27T19:16:59.194Z,92081.78
2023-03-27T19:19:46.604Z,92071.44
2023-03-27T19:22:32.678Z,92083.38
2023-03-27T19:25:22.628Z,92083.09
2023-03-27T19:27:51.269Z,92091.06
2023-03-27T19:30:19.859Z,92108.75
2023-03-27T19:32:48.728Z,92112.72
2023-03-27T19:35:17.330Z,92108.47
2023-03-27T19:37:46.263Z,92109.53
2023-03-27T19:40:15.714Z,92112.44
2023-03-27T19:42:44.343Z,92106.63
2023-03-27T19:45:12.925Z,92120.69
2023-03-27T19:47:41.719Z,92123.34
2023-03-27T19:50:10.343Z,92122.00
2023-03-27T19:53:08.649Z,92134.75
2023-03-27T19:55:38.184Z,92140.31
2023-03-27T19:58:06.709Z,92144.56
2023-03-27T20:00:40.086Z,92144.84
2023-03-27T20:03:10.774Z,92125.13
2023-03-27T20:05:40.722Z,92150.03
2023-03-27T20:08:08.729Z,92155.03
2023-03-27T20:10:36.701Z,92149.75
2023-03-27T20:13:04.816Z,92153.19
2023-03-27T20:15:34.513Z,92150.53
2023-03-27T20:18:03.917Z,92160.06
2023-03-27T20:20:33.555Z,92151.31
2023-03-27T20:23:03.318Z,92143.38
2023-03-27T20:25:33.670Z,92157.13
2023-03-27T20:28:03.334Z,92160.81
2023-03-27T20:30:34.614Z,92153.38
2023-03-27T20:33:03.491Z,92140.91
2023-03-27T20:35:33.492Z,92133.16
2023-03-27T20:38:06.052Z,92141.97
2023-03-27T20:40:52.722Z,92141.91
2023-03-27T20:43:27.510Z,92148.53
2023-03-27T20:45:59.140Z,92136.78
2023-03-27T20:48:41.078Z,92146.34
2023-03-27T20:51:14.978Z,92142.41
2023-03-27T20:53:45.024Z,92150.13
2023-03-27T20:56:14.473Z,92153.00
2023-03-27T20:58:42.834Z,92142.94
2023-03-27T21:01:11.582Z,92153.75
2023-03-27T21:03:42.915Z,92145.50
2023-03-27T21:06:15.000Z,92138.56
2023-03-27T21:08:43.377Z,92149.06
2023-03-27T21:11:11.893Z,92141.41
2023-03-27T21:13:40.159Z,92152.75
2023-03-27T21:16:09.326Z,92152.06
2023-03-27T21:18:37.282Z,92147.41
2023-03-27T21:21:05.588Z,92146.25
2023-03-27T21:23:34.840Z,92149.94
2023-03-27T21:26:02.618Z,92152.28
2023-03-27T21:28:30.689Z,92158.03
2023-03-27T21:30:59.798Z,92144.22
2023-03-27T21:33:27.697Z,92160.69
2023-03-27T21:35:55.664Z,92174.78
2023-03-27T21:38:23.754Z,92165.81
2023-03-27T21:40:51.625Z,92146.47
2023-03-27T21:43:21.487Z,92165.34
2023-03-27T21:45:50.507Z,92166.66
2023-03-27T21:48:18.820Z,92172.72
2023-03-27T21:50:47.690Z,92169.69
2023-03-27T21:53:17.159Z,92168.59
2023-03-27T21:55:46.951Z,92182.63
2023-03-27T21:58:15.001Z,92191.84
2023-03-27T22:00:45.843Z,92190.03
2023-03-27T22:03:13.884Z,92191.81
2023-03-27T22:05:42.066Z,92190.03
2023-03-27T22:08:10.327Z,92188.13
2023-03-27T22:10:38.475Z,92190.72
2023-03-27T22:13:06.844Z,92193.34
2023-03-27T22:15:34.997Z,92190.13
2023-03-27T22:18:03.027Z,92181.59
2023-03-27T22:20:30.999Z,92187.41
2023-03-27T22:22:59.161Z,92182.66
2023-03-27T22:25:27.110Z,92180.31
2023-03-27T22:27:55.042Z,92186.69
2023-03-27T22:30:23.168Z,92188.03
2023-03-27T22:32:51.127Z,92187.81
2023-03-27T22:35:19.454Z,92187.41
2023-03-27T22:37:47.470Z,92193.97
2023-03-27T22:40:15.687Z,92206.47
2023-03-27T22:42:43.834Z,92202.59
2023-03-27T22:45:11.966Z,92204.09
2023-03-27T22:47:40.846Z,92219.38
2023-03-27T22:50:09.134Z,92224.25
2023-03-27T22:52:37.193Z,92224.88
2023-03-27T22:55:05.501Z,92244.81
2023-03-27T22:57:36.248Z,92229.34
2023-03-27T23:00:07.061Z,92253.78
2023-03-27T23:02:35.821Z,92255.41
2023-03-27T23:05:04.545Z,92267.97
2023-03-27T23:07:32.839Z,92273.22
2023-03-27T23:10:00.989Z,92276.56
2023-03-27T23:12:28.810Z,92272.31
2023-03-27T23:14:56.843Z,92277.84
2023-03-27T23:17:24.851Z,92291.38
2023-03-27T23:19:52.770Z,92309.94
2023-03-27T23:22:20.795Z,92301.88
2023-03-27T23:24:48.674Z,92302.78
2023-03-27T23:27:16.644Z,92308.28
2023-03-27T23:29:44.621Z,92330.09
2023-03-27T23:32:12.646Z,92327.38
2023-03-27T23:34:41.083Z,92319.69
2023-03-27T23:37:08.954Z,92340.22
2023-03-27T23:39:36.873Z,92342.19
2023-03-27T23:42:04.886Z,92337.38
2023-03-27T23:44:32.881Z,92348.56
2023-03-27T23:47:00.854Z,92353.22
2023-03-27T23:49:28.715Z,92363.97
2023-03-27T23:51:56.723Z,92323.84
2023-03-27T23:54:24.697Z,92377.81
2023-03-27T23:56:52.736Z,92386.16
2023-03-27T23:59:23.502Z,92392.03
